ADDS METAR Data INFO
IDs: Format: Raw Decoded Include TAF

Data at: 2022 UTC 16 Dec 2017

KMJX 161956Z AUTO 27015G21KT 10SM CLR 04/M04 A3003 RMK AO2 SLPNO P0001 T00441039
KMJX 161856Z AUTO 25012KT 10SM FEW080 05/M03 A3004 RMK AO2 SLPNO P0002 T00501028
KMJX 161756Z AUTO 25017G24KT 10SM CLR 04/M03 A3004 RMK AO2 SLPNO P0007 6//// T00441028 10044 21061 58026
KMJX 161656Z AUTO 26012G21KT 10SM CLR 03/M03 A3007 RMK AO2 SLPNO T00281033
KMJX 161556Z AUTO 24013G19KT 10SM CLR 01/M04 A3010 RMK AO2 SLPNO P0001 T00111039 FZRANO
KMJX 161456Z AUTO 24010KT 10SM CLR M01/M04 A3012 RMK AO2 SLPNO P0002 6//// T10061044 FZRANO
KMJX 161356Z AUTO 21006KT 10SM FEW070 M05/M07 A3012 RMK AO2 SLPNO P0003 T10501072 FZRANO
KMJX 161256Z AUTO 23007KT 10SM M06/M08 A3010 RMK AO2 SLPNO T10561078 FZRANO
KMJX 160956Z AUTO 26008KT 10SM CLR M07/M08 A3004 RMK AO2 SLP178 T10671078 FZRANO
KMJX 160856Z AUTO 26005KT 9SM CLR M09/M11 A3002 RMK AO2 SLP172 T10941106 51021 FZRANO
KMJX 160756Z AUTO 24005KT 8SM CLR M09/M10 A3001 RMK AO2 SLP169 T10891100 FZRANO
KMJX 160656Z AUTO 24006KT 8SM CLR M09/M10 A2999 RMK AO2 SLP160 T10891100 FZRANO
KMJX 160556Z AUTO 24006KT 7SM CLR M09/M10 A2996 RMK AO2 SLP151 60000 T10891100 11050 21111 55003 FZRANO
KMJX 160456Z AUTO 25005KT 8SM CLR M11/M12 A2996 RMK AO2 SLP150 T11061117 410281111 FZRANO
KMJX 160356Z AUTO 24004KT 5SM BR CLR M09/M10 A2996 RMK AO2 SLP152 T10891100 FZRANO
KMJX 160256Z AUTO 27005KT 10SM CLR M07/M08 A2997 RMK AO2 SLP155 60000 T10671078 53015 FZRANO
KMJX 160156Z AUTO 31005KT 10SM BKN050 OVC065 M05/M06 A2994 RMK AO2 SNE42 SLP146 P0000 T10501061 FZRANO
KMJX 160056Z AUTO 32004KT 9SM -SN OVC050 M05/M06 A2994 RMK AO2 SLP143 P0000 T10501061 FZRANO
KMJX 160008Z AUTO 33004KT 4SM -SN BR FEW017 SCT023 OVC039 M05/M06 A2993 RMK AO2 P0000 FZRANO
KMJX 152356Z AUTO 00000KT 2SM -SN BR BKN017 BKN025 OVC030 M05/M06 A2992 RMK AO2 SLP139 P0000 60000 T10501061 11033 21050 58007 FZRANO
KMJX 152300Z AUTO 34004KT 2SM -SN BR OVC015 M05/M06 A2993 RMK AO2 CIG 010V020 P0000 FZRANO
KMJX 152216Z AUTO 34004KT 1 1/4SM -SN BR BKN010 OVC014 M05/M06 A2994 RMK AO2 CIG 008V012 P0000 FZRANO
KMJX 152210Z AUTO 33005KT 1SM -SN BR BKN008 OVC016 M05/M06 A2994 RMK AO2 CIG 007V013 P0000 FZRANO
KMJX 152159Z AUTO 34003KT 1 1/4SM -SN BR SCT008 OVC014 M05/M06 A2994 RMK AO2 P0000 FZRANO
KMJX 152156Z AUTO 00000KT 1SM -SN BR BKN008 OVC014 M05/M06 A2994 RMK AO2 CIG 005V011 SLP145 P0000 T10501061 FZRANO
KMJX 152142Z AUTO 33004KT 1/4SM SN FZFG OVC006 M05/M06 A2994 RMK AO2 CIG 005V011 P0000 FZRANO TSNO
KMJX 152122Z AUTO 32004KT 1/2SM SN FZFG BKN009 OVC013 M05/M06 A2995 RMK AO2 CIG 008V012 P0000 FZRANO
KMJX 152112Z AUTO 00000KT 3/4SM -SN BR OVC011 M05/M06 A2994 RMK AO2 P0000 FZRANO
KMJX 152056Z AUTO 33003KT 1/2SM SN FZFG BKN011 OVC016 M05/M06 A2994 RMK AO2 CIG 009V013 SLP146 P0000 60000 T10501061 52002 FZRANO
KMJX 152041Z AUTO 32005KT 3/4SM -SN BR OVC013 M05/M06 A2994 RMK AO2 P0000 FZRANO
KMJX 152031Z AUTO 00000KT 1SM -SN BR OVC015 M05/M06 A2994 RMK AO2 P0000 FZRANO
KMJX 152022Z AUTO 33003KT 3/4SM -SN BR BKN013 OVC020 M05/M07 A2994 RMK AO2 P0000 FZRANO
KMJX 152014Z AUTO 00000KT 3/4SM -SN BR BKN015 BKN020 OVC027 M05/M07 A2994 RMK AO2 P0000 FZRANO
KMJX 151956Z AUTO 35004KT 1 3/4SM -SN FEW021 BKN026 OVC036 M04/M07 A2994 RMK AO2 VIS 1V2 1/2 SLP144 P0000 T10441072 FZRANO
KMJX 151952Z AUTO 36006KT 1 3/4SM -SN SCT028 OVC036 M04/M08 A2994 RMK AO2 VIS 1 1/4V2 1/2 P0000 FZRANO
KMJX 151940Z AUTO 36006KT 2SM -SN FEW028 BKN036 OVC048 M04/M08 A2994 RMK AO2 VIS 1 3/4V3 P0000 FZRANO
KMJX 151856Z AUTO 36004KT 9SM -SN OVC050 M03/M11 A2995 RMK AO2 SNB02 SLP149 P0000 T10331106 FZRANO
KMJX 151756Z AUTO 01004KT 10SM OVC060 M03/M11 A2999 RMK AO2 SLP163 T10331111 11028 21083 58043 FZRANO
KMJX 151656Z AUTO 00000KT 10SM OVC055 M04/M12 A3005 RMK AO2 SLP181 T10391117 FZRANO
KMJX 151556Z AUTO 00000KT 10SM OVC060 M04/M11 A3009 RMK AO2 SLP196 T10391111 FZRANO
KMJX 151456Z AUTO 36004KT 10SM OVC090 M04/M11 A3012 RMK AO2 SLP206 T10441111 58005 FZRANO
KMJX 151356Z AUTO 00000KT 10SM CLR M06/M10 A3013 RMK AO2 SLP210 T10561100 FZRANO
KMJX 151256Z AUTO 00000KT 10SM CLR M08/M11 A3013 RMK AO2 SLP209 T10781106 FZRANO
KMJX 151156Z AUTO 00000KT 10SM CLR M08/M11 A3014 RMK AO2 SLP211 60001 70003 T10831111 11067 21094 55002 FZRANO
KMJX 151056Z AUTO 30003KT 10SM CLR M08/M12 A3013 RMK AO2 SLP208 T10831122 FZRANO
KMJX 150956Z AUTO 00000KT 10SM CLR M08/M11 A3013 RMK AO2 SLP209 T10781111 FZRANO
KMJX 150856Z AUTO 23003KT 10SM CLR M09/M12 A3014 RMK AO2 SLP213 60001 T10891117 53010 FZRANO